Time;durP1;ratioP1;P1;durP2;ratioP2;P2;SDS_P1;SDS_P2;PMS_P1;PMS_P2;Temp;Humidity;BMP_temperature;BMP_pressure;BME280_temperature;BME280_humidity;BME280_pressure;Samples;Min_cycle;Max_cycle;Signal;HPM_P1;HPM_P2
2023/02/13 05:01:44;;;;;;;2.53;2.33;;;16.10;67.40;;;;;;5289049;23;20065;-74
2023/02/13 05:04:14;;;;;;;2.35;2.15;;;16.00;58.80;;;;;;4990010;28;20047;-74
2023/02/13 05:06:40;;;;;;;2.88;2.60;;;16.00;58.80;;;;;;4992381;28;20192;-74
2023/02/13 05:09:06;;;;;;;2.45;2.25;;;16.00;58.70;;;;;;4992583;28;20449;-71
2023/02/13 05:11:32;;;;;;;2.10;2.00;;;16.00;58.70;;;;;;4992219;28;20054;-74
2023/02/13 05:13:57;;;;;;;2.47;2.28;;;16.00;58.70;;;;;;4992184;28;20105;-74
2023/02/13 05:16:23;;;;;;;2.35;2.17;;;16.00;58.70;;;;;;4995922;28;20392;-74
2023/02/13 05:18:48;;;;;;;2.13;2.03;;;16.00;58.70;;;;;;4995805;28;20620;-74
2023/02/13 05:23:58;;;;;;;2.75;2.55;;;16.00;58.70;;;;;;4995980;28;20041;-74
2023/02/13 05:26:24;;;;;;;2.30;2.10;;;16.00;58.70;;;;;;4995665;28;20026;-74
2023/02/13 05:31:34;;;;;;;2.35;2.15;;;16.00;58.70;;;;;;4995917;28;20041;-74
2023/02/13 05:34:00;;;;;;;2.30;2.10;;;16.00;58.70;;;;;;4995469;28;20030;-74
2023/02/13 05:36:25;;;;;;;2.63;2.20;;;16.00;58.70;;;;;;4995534;28;20030;-74
2023/02/13 05:38:51;;;;;;;2.33;2.10;;;16.00;58.70;;;;;;4995391;28;20088;-74
2023/02/13 05:41:16;;;;;;;2.00;1.90;;;16.00;58.70;;;;;;4995479;28;20027;-74
2023/02/13 05:43:42;;;;;;;2.47;2.28;;;16.00;58.70;;;;;;4995351;28;20088;-74
2023/02/13 05:46:08;;;;;;;2.33;2.13;;;16.00;58.70;;;;;;4995323;28;20026;-74
2023/02/13 05:48:34;;;;;;;1.98;1.88;;;16.00;58.70;;;;;;4995296;28;20026;-74
2023/02/13 05:51:01;;;;;;;2.50;2.20;;;16.00;58.70;;;;;;4995423;28;20460;-74
2023/02/13 05:53:26;;;;;;;2.30;2.10;;;16.00;58.70;;;;;;4995137;28;20094;-74
2023/02/13 05:55:55;;;;;;;2.30;2.10;;;16.00;58.70;;;;;;4995054;28;20033;-71
2023/02/13 05:58:21;;;;;;;2.53;2.30;;;16.00;58.70;;;;;;4995171;28;20034;-74
2023/02/13 06:00:47;;;;;;;2.20;2.00;;;16.00;58.70;;;;;;4995051;28;20096;-74
2023/02/13 06:03:13;;;;;;;2.35;2.15;;;16.00;58.70;;;;;;4994679;28;20046;-74
2023/02/13 06:05:39;;;;;;;2.55;2.35;;;16.00;59.30;;;;;;4994965;28;20030;-74
2023/02/13 06:08:04;;;;;;;2.53;2.33;;;16.00;58.70;;;;;;4994867;28;20026;-74
2023/02/13 06:10:30;;;;;;;2.28;2.13;;;16.00;58.70;;;;;;4994826;28;20024;-74
2023/02/13 06:12:55;;;;;;;2.40;2.20;;;16.00;58.70;;;;;;4994552;28;20130;-72
2023/02/13 06:15:21;;;;;;;2.60;2.40;;;16.00;58.80;;;;;;4994787;28;20050;-71
2023/02/13 06:17:46;;;;;;;2.72;2.53;;;16.00;58.80;;;;;;4998344;28;20393;-73
2023/02/13 06:20:12;;;;;;;2.53;2.33;;;16.00;58.80;;;;;;4998983;28;20077;-73
2023/02/13 06:22:38;;;;;;;3.45;2.63;;;16.00;58.80;;;;;;5001495;28;20041;-74
2023/02/13 06:25:04;;;;;;;3.17;2.60;;;16.00;58.80;;;;;;4995156;28;20030;-75
2023/02/13 06:27:29;;;;;;;2.35;2.08;;;16.00;58.80;;;;;;4994457;28;20440;-73
2023/02/13 06:29:55;;;;;;;2.15;2.00;;;16.00;58.80;;;;;;4994331;28;20030;-76
2023/02/13 06:32:20;;;;;;;3.78;2.20;;;16.00;58.80;;;;;;4994778;28;20051;-73
2023/02/13 06:34:46;;;;;;;2.72;2.33;;;16.00;58.80;;;;;;4994477;28;20515;-73
2023/02/13 06:37:11;;;;;;;2.60;2.40;;;16.00;58.80;;;;;;4994260;28;20042;-81
2023/02/13 06:39:37;;;;;;;2.60;2.40;;;16.00;58.80;;;;;;4994355;28;20036;-75
2023/02/13 06:42:03;;;;;;;2.80;2.60;;;16.00;58.80;;;;;;4994212;28;20033;-75
2023/02/13 06:44:28;;;;;;;2.47;2.28;;;16.00;58.80;;;;;;4994278;28;20035;-75
2023/02/13 06:46:54;;;;;;;3.28;2.97;;;16.00;58.80;;;;;;4994112;28;20041;-75
2023/02/13 06:49:20;;;;;;;4.22;3.38;;;15.90;58.70;;;;;;4994355;28;20022;-73
2023/02/13 06:51:45;;;;;;;8.30;4.10;;;16.00;58.80;;;;;;4994179;28;20030;-73
2023/02/13 06:54:11;;;;;;;6.50;4.78;;;15.90;58.60;;;;;;4994101;28;20030;-75
2023/02/13 06:56:37;;;;;;;7.25;4.47;;;16.00;58.70;;;;;;4993741;28;20479;-76
2023/02/13 06:59:03;;;;;;;8.82;4.20;;;16.00;58.70;;;;;;4994260;28;20037;-75
2023/02/13 07:01:29;;;;;;;6.35;4.72;;;15.90;66.90;;;;;;4993942;28;20353;-75
2023/02/13 07:03:55;;;;;;;5.25;4.10;;;16.00;58.70;;;;;;4993871;28;20093;-75
2023/02/13 07:06:20;;;;;;;6.85;3.95;;;16.00;59.00;;;;;;4993768;28;20437;-74
2023/02/13 07:08:50;;;;;;;7.53;3.65;;;16.00;58.60;;;;;;4993959;28;20030;-74
2023/02/13 07:11:17;;;;;;;4.47;3.20;;;16.00;58.60;;;;;;4993860;28;20033;-75
2023/02/13 07:13:43;;;;;;;5.22;3.20;;;16.00;58.60;;;;;;4993890;28;20282;-74
2023/02/13 07:16:08;;;;;;;7.68;3.50;;;16.00;58.60;;;;;;4993743;28;20050;-76
2023/02/13 07:18:34;;;;;;;3.92;3.53;;;16.00;58.60;;;;;;4993673;28;20110;-74
2023/02/13 07:21:00;;;;;;;4.55;3.53;;;16.00;58.60;;;;;;4993653;28;20150;-73
2023/02/13 07:23:25;;;;;;;5.97;3.45;;;16.00;58.60;;;;;;4993829;28;20109;-74
2023/02/13 07:25:51;;;;;;;4.10;3.22;;;16.00;58.60;;;;;;4993689;28;20022;-74
2023/02/13 07:28:16;;;;;;;3.75;3.30;;;16.00;58.60;;;;;;4993963;28;20082;-73
2023/02/13 07:30:42;;;;;;;4.03;3.20;;;16.00;58.60;;;;;;4993834;28;20046;-72
2023/02/13 07:33:08;;;;;;;3.70;3.15;;;16.00;58.50;;;;;;4993824;28;20492;-73
2023/02/13 07:35:36;;;;;;;6.40;3.50;;;16.00;58.50;;;;;;4993273;28;20022;-72
2023/02/13 07:38:03;;;;;;;5.05;3.10;;;16.00;58.50;;;;;;4992939;28;20038;-73
2023/02/13 07:40:29;;;;;;;4.20;3.30;;;16.00;58.40;;;;;;4993893;28;20432;-73
2023/02/13 07:42:55;;;;;;;3.97;2.90;;;16.00;58.40;;;;;;4993727;28;20030;-73
2023/02/13 07:45:21;;;;;;;5.35;4.03;;;16.00;58.40;;;;;;4993701;28;20026;-72
2023/02/13 07:47:47;;;;;;;6.63;3.83;;;16.00;58.40;;;;;;4993275;28;20495;-73
2023/02/13 07:50:14;;;;;;;5.18;3.83;;;16.00;58.40;;;;;;4993437;28;20477;-73
2023/02/13 07:52:40;;;;;;;4.40;3.72;;;16.00;58.40;;;;;;4993483;28;20157;-72
2023/02/13 07:55:06;;;;;;;4.32;3.30;;;16.00;58.40;;;;;;4993248;28;20030;-72
2023/02/13 07:57:33;;;;;;;4.10;3.25;;;16.00;58.30;;;;;;4992994;28;20058;-72
2023/02/13 07:59:59;;;;;;;4.32;3.60;;;16.00;58.30;;;;;;4993484;28;20019;-72
2023/02/13 08:02:25;;;;;;;5.07;4.20;;;16.00;58.30;;;;;;4992874;28;20049;-72
2023/02/13 08:04:51;;;;;;;5.53;3.72;;;16.00;58.30;;;;;;4993533;28;20026;-72
2023/02/13 08:07:17;;;;;;;4.30;3.90;;;16.00;58.20;;;;;;4993421;28;20611;-72
2023/02/13 08:12:29;;;;;;;4.63;3.22;;;16.00;58.20;;;;;;4993387;28;20032;-73
2023/02/13 08:14:55;;;;;;;4.80;3.47;;;16.00;58.20;;;;;;4993162;28;20498;-73
2023/02/13 08:17:21;;;;;;;4.50;3.72;;;16.00;58.20;;;;;;4992799;28;20073;-72
2023/02/13 08:19:48;;;;;;;3.65;3.10;;;16.00;58.10;;;;;;4992899;28;20037;-72
2023/02/13 08:22:14;;;;;;;3.35;3.00;;;16.00;58.10;;;;;;4993231;28;20022;-72
2023/02/13 08:24:40;;;;;;;3.78;3.17;;;16.00;58.10;;;;;;4992933;28;20473;-73
2023/02/13 08:27:06;;;;;;;3.72;3.10;;;16.00;58.00;;;;;;4993062;28;20105;-73
2023/02/13 08:29:33;;;;;;;5.03;3.83;;;16.00;58.00;;;;;;4992667;28;20469;-72
2023/02/13 08:31:59;;;;;;;4.78;3.85;;;16.00;58.00;;;;;;4993097;28;20057;-72
2023/02/13 08:34:25;;;;;;;4.18;3.70;;;16.00;58.00;;;;;;4992966;28;20030;-73
2023/02/13 08:36:51;;;;;;;4.03;3.53;;;16.00;58.00;;;;;;4992564;28;20052;-72
2023/02/13 08:39:17;;;;;;;4.00;3.60;;;16.00;58.00;;;;;;4992829;28;20034;-72
2023/02/13 08:41:43;;;;;;;5.13;4.00;;;16.00;58.00;;;;;;4992881;28;20169;-73
2023/02/13 08:44:10;;;;;;;4.78;3.63;;;16.00;58.00;;;;;;4997098;28;20488;-72
2023/02/13 08:46:36;;;;;;;4.18;3.78;;;16.00;57.90;;;;;;4994565;28;20026;-72
2023/02/13 08:49:02;;;;;;;5.90;3.97;;;16.00;58.00;;;;;;4994220;28;20465;-72
2023/02/13 08:51:28;;;;;;;4.25;3.70;;;16.00;58.60;;;;;;4996609;28;20032;-72
2023/02/13 08:53:54;;;;;;;5.15;4.13;;;16.00;57.90;;;;;;4996478;28;20019;-72
2023/02/13 08:56:20;;;;;;;5.18;4.18;;;16.00;57.90;;;;;;4996322;28;20030;-72
2023/02/13 08:58:49;;;;;;;5.20;3.95;;;16.00;57.90;;;;;;4979172;28;20504;-73
2023/02/13 09:01:15;;;;;;;6.07;5.03;;;16.00;57.40;;;;;;4996456;28;20030;-71
2023/02/13 09:03:41;;;;;;;8.75;5.05;;;16.00;58.00;;;;;;4996004;28;20054;-73
2023/02/13 09:06:07;;;;;;;6.80;4.85;;;16.10;58.10;;;;;;4997404;28;20448;-73
2023/02/13 09:08:36;;;;;;;9.00;4.13;;;16.10;58.10;;;;;;4997455;28;20031;-73
2023/02/13 09:11:05;;;;;;;5.03;4.30;;;16.10;58.20;;;;;;4998520;28;20030;-76
2023/02/13 09:13:33;;;;;;;6.28;4.63;;;16.10;58.20;;;;;;4997592;28;20046;-73
2023/02/13 09:16:01;;;;;;;5.30;4.03;;;16.10;58.20;;;;;;4997376;28;20551;-75
2023/02/13 09:18:27;;;;;;;5.85;4.50;;;16.20;58.30;;;;;;4997443;28;20113;-74
2023/02/13 09:21:08;;;;;;;6.45;4.13;;;16.20;58.30;;;;;;4997501;28;20102;-74
2023/02/13 09:23:36;;;;;;;6.05;4.47;;;16.20;58.30;;;;;;4996754;28;20106;-73
2023/02/13 09:26:07;;;;;;;5.57;4.00;;;16.20;58.30;;;;;;4996696;28;20504;-74
2023/02/13 09:28:34;;;;;;;5.85;4.55;;;16.20;58.20;;;;;;4996585;28;20034;-74
2023/02/13 09:31:08;;;;;;;5.22;4.03;;;16.30;58.30;;;;;;4996880;28;20018;-73
2023/02/13 09:33:35;;;;;;;5.10;4.22;;;16.30;58.40;;;;;;4997086;28;20030;-74
2023/02/13 09:36:06;;;;;;;5.45;4.57;;;16.30;58.40;;;;;;4997123;28;20029;-75
2023/02/13 09:38:32;;;;;;;4.93;3.95;;;16.30;58.50;;;;;;4997458;28;20113;-75
2023/02/13 09:41:21;;;;;;;4.25;3.63;;;16.30;58.50;;;;;;4996001;28;20019;-75
2023/02/13 09:44:32;;;;;;;4.60;4.10;;;16.30;58.50;;;;;;4995184;28;20038;-74
2023/02/13 09:46:58;;;;;;;5.30;4.53;;;16.40;58.60;;;;;;4995459;28;20043;-75
2023/02/13 09:49:29;;;;;;;6.25;4.93;;;16.40;58.70;;;;;;4995397;28;20038;-75
2023/02/13 09:51:56;;;;;;;3.97;3.58;;;16.40;58.70;;;;;;4995624;28;20019;-75
2023/02/13 09:54:22;;;;;;;4.63;3.92;;;16.50;58.80;;;;;;4994922;28;20041;-75
2023/02/13 09:56:59;;;;;;;5.28;3.85;;;16.50;58.70;;;;;;4994841;28;20120;-78
2023/02/13 09:59:42;;;;;;;4.22;3.53;;;16.50;58.80;;;;;;4994905;28;20022;-78
2023/02/13 10:02:47;;;;;;;3.90;3.50;;;16.50;58.70;;;;;;4994528;28;20484;-78
2023/02/13 10:05:21;;;;;;;5.00;4.00;;;16.60;58.80;;;;;;4954944;28;20041;-78
2023/02/13 10:08:06;;;;;;;4.15;3.75;;;16.60;58.70;;;;;;4995257;28;20045;-78
2023/02/13 10:10:39;;;;;;;4.65;3.55;;;16.60;58.70;;;;;;4995216;28;20027;-79
2023/02/13 10:13:23;;;;;;;5.07;3.83;;;16.60;58.70;;;;;;4995224;28;20033;-79
2023/02/13 10:16:01;;;;;;;4.28;3.60;;;16.70;58.70;;;;;;4995155;28;20412;-78
2023/02/13 10:18:36;;;;;;;4.03;3.38;;;16.70;58.70;;;;;;4995171;28;20038;-77
2023/02/13 10:21:04;;;;;;;4.13;3.50;;;16.70;58.60;;;;;;4995283;28;20372;-78
2023/02/13 10:23:53;;;;;;;4.40;3.53;;;16.80;58.60;;;;;;4977474;28;20018;-77
2023/02/13 10:26:22;;;;;;;4.47;3.30;;;16.80;58.60;;;;;;4994910;28;20422;-77
2023/02/13 10:31:44;;;;;;;5.03;3.53;;;16.90;58.50;;;;;;4995082;28;20107;-78
2023/02/13 10:34:22;;;;;;;3.97;3.53;;;16.90;58.40;;;;;;4994388;28;20515;-78
2023/02/13 10:36:48;;;;;;;5.32;3.75;;;17.00;58.50;;;;;;4994409;28;20042;-78
2023/02/13 10:39:24;;;;;;;3.70;3.40;;;17.00;58.50;;;;;;4994299;28;20038;-78
2023/02/13 10:42:03;;;;;;;3.53;3.22;;;17.00;58.40;;;;;;4994333;28;20102;-75
2023/02/13 10:44:40;;;;;;;4.23;3.77;;;17.10;58.30;;;;;;4994533;28;20053;-78
2023/02/13 10:47:12;;;;;;;4.93;3.63;;;17.20;58.30;;;;;;4994150;28;20058;-78
2023/02/13 10:50:12;;;;;;;3.72;3.33;;;17.20;58.30;;;;;;4994209;28;20480;-78
2023/02/13 10:52:56;;;;;;;4.28;3.88;;;17.20;58.10;;;;;;4994512;28;20093;-78
2023/02/13 10:56:06;;;;;;;4.00;3.60;;;17.30;58.20;;;;;;4994330;28;20043;-78
2023/02/13 10:58:41;;;;;;;3.85;3.45;;;17.40;58.30;;;;;;4993955;28;20038;-77
2023/02/13 11:01:24;;;;;;;4.43;3.88;;;17.40;58.20;;;;;;4994217;28;20022;-78
2023/02/13 11:04:11;;;;;;;5.60;4.13;;;17.50;58.20;;;;;;4993915;28;20100;-77
2023/02/13 11:06:48;;;;;;;5.30;4.25;;;17.50;58.20;;;;;;4994053;28;20496;-77
2023/02/13 11:09:14;;;;;;;4.78;4.18;;;17.50;58.30;;;;;;4994009;28;20045;-77
2023/02/13 11:11:42;;;;;;;4.93;3.60;;;17.60;58.20;;;;;;4993777;28;20018;-77
2023/02/13 11:14:11;;;;;;;5.15;4.07;;;17.60;58.20;;;;;;4993644;28;20477;-77
2023/02/13 11:16:43;;;;;;;6.80;4.35;;;17.70;58.20;;;;;;4993977;28;20022;-77
2023/02/13 11:19:28;;;;;;;4.15;3.30;;;17.70;58.30;;;;;;4993648;28;20038;-77
2023/02/13 11:22:19;;;;;;;3.92;3.53;;;17.80;58.20;;;;;;4993592;28;20031;-78
2023/02/13 11:24:55;;;;;;;3.75;3.13;;;17.80;58.20;;;;;;4992477;28;20420;-77
2023/02/13 11:27:32;;;;;;;3.22;2.92;;;17.80;58.00;;;;;;4993721;28;20035;-77
2023/02/13 11:30:02;;;;;;;3.97;3.33;;;17.50;57.70;;;;;;4993566;28;20018;-74
2023/02/13 11:32:31;;;;;;;5.25;3.40;;;17.90;58.00;;;;;;4993269;28;20485;-74
2023/02/13 11:34:57;;;;;;;4.13;3.47;;;18.00;57.90;;;;;;4993559;28;20028;-75
2023/02/13 11:37:29;;;;;;;6.72;3.97;;;18.10;58.00;;;;;;4993449;28;20431;-75
2023/02/13 11:39:57;;;;;;;4.95;4.28;;;18.10;57.80;;;;;;4993181;28;20050;-75
2023/02/13 11:42:25;;;;;;;5.97;4.60;;;18.20;57.70;;;;;;4993063;28;20477;-73
2023/02/13 11:45:16;;;;;;;4.13;3.67;;;18.20;57.60;;;;;;4993403;28;20389;-74
2023/02/13 11:47:42;;;;;;;4.00;3.58;;;18.30;57.70;;;;;;4982669;28;20043;-74
2023/02/13 11:50:28;;;;;;;4.85;3.70;;;18.30;57.50;;;;;;4992984;28;20109;-73
2023/02/13 11:53:04;;;;;;;3.88;3.47;;;18.40;57.60;;;;;;4993321;28;20358;-73
2023/02/13 11:55:36;;;;;;;4.20;3.78;;;18.40;57.50;;;;;;4992932;28;20114;-73
2023/02/13 11:58:14;;;;;;;4.35;3.50;;;18.50;57.50;;;;;;4993065;28;20034;-73
2023/02/13 12:00:42;;;;;;;4.30;3.90;;;18.50;57.40;;;;;;4993104;28;20037;-74
2023/02/13 12:03:27;;;;;;;4.22;3.80;;;18.60;57.50;;;;;;4992663;28;20584;-74
2023/02/13 12:06:14;;;;;;;3.75;3.45;;;18.70;57.40;;;;;;4992867;28;20033;-75
2023/02/13 12:08:43;;;;;;;3.08;2.78;;;18.70;57.20;;;;;;4993015;28;20153;-75
2023/02/13 12:11:23;;;;;;;3.60;2.97;;;18.70;57.30;;;;;;4992743;28;20508;-74
2023/02/13 12:13:50;;;;;;;;;;;18.80;57.70;;;;;;4992955;28;20034;-75
2023/02/13 12:16:39;;;;;;;3.55;3.13;;;18.90;57.10;;;;;;4992885;28;19913;-75
2023/02/13 12:19:16;;;;;;;3.65;3.35;;;18.90;57.10;;;;;;4992892;28;20436;-74
2023/02/13 12:22:13;;;;;;;3.17;2.90;;;19.00;57.00;;;;;;4992689;28;20102;-75
2023/02/13 12:25:08;;;;;;;3.00;2.80;;;19.00;56.90;;;;;;4997472;28;20121;-75
2023/02/13 12:27:57;;;;;;;3.70;2.90;;;19.10;56.90;;;;;;4999304;28;20083;-75
2023/02/13 12:30:37;;;;;;;3.75;2.78;;;19.20;56.90;;;;;;4974874;28;20539;-75
2023/02/13 12:33:33;;;;;;;4.07;2.88;;;19.20;56.80;;;;;;4999488;28;20076;-74
2023/02/13 12:36:28;;;;;;;3.42;3.10;;;19.30;56.80;;;;;;4999419;28;20118;-73
2023/02/13 12:39:18;;;;;;;3.00;2.70;;;19.30;57.30;;;;;;4999269;28;20045;-74
2023/02/13 12:41:59;;;;;;;3.10;2.80;;;19.40;56.60;;;;;;4999426;28;20030;-75
2023/02/13 12:44:47;;;;;;;2.60;2.40;;;19.40;56.50;;;;;;4999260;28;20037;-75
2023/02/13 12:47:41;;;;;;;2.80;2.60;;;19.50;56.40;;;;;;4998976;28;20620;-76
2023/02/13 12:50:31;;;;;;;3.90;2.85;;;19.60;56.40;;;;;;4988589;28;20038;-75
2023/02/13 12:53:32;;;;;;;3.13;2.85;;;19.70;56.20;;;;;;4999113;28;20370;-76
2023/02/13 12:56:13;;;;;;;4.82;2.67;;;19.70;55.90;;;;;;4955467;28;20031;-75
2023/02/13 12:58:58;;;;;;;2.92;2.42;;;19.80;56.00;;;;;;4998953;28;20042;-75
2023/02/13 13:01:55;;;;;;;5.53;2.80;;;19.90;62.80;;;;;;4998728;28;20054;-74
2023/02/13 13:04:55;;;;;;;3.22;2.70;;;19.90;55.60;;;;;;4998734;28;20043;-75
2023/02/13 13:07:30;;;;;;;4.15;2.60;;;20.00;55.60;;;;;;4994807;28;20046;-74
2023/02/13 13:10:14;;;;;;;2.70;2.50;;;20.00;55.60;;;;;;4998930;28;20019;-73
2023/02/13 13:12:48;;;;;;;2.70;2.50;;;20.00;55.60;;;;;;4998943;28;20416;-74
2023/02/13 13:15:25;;;;;;;3.60;2.67;;;20.10;55.60;;;;;;4999077;28;20022;-74
2023/02/13 13:18:01;;;;;;;2.60;2.40;;;20.10;55.60;;;;;;4998771;28;20042;-74
2023/02/13 13:20:47;;;;;;;3.00;2.60;;;20.10;55.60;;;;;;4998998;28;20053;-74
2023/02/13 13:23:25;;;;;;;4.43;2.63;;;20.20;56.20;;;;;;4998753;28;20094;-75
2023/02/13 13:26:21;;;;;;;2.45;2.25;;;20.20;55.50;;;;;;4998385;28;20599;-74
2023/02/13 13:28:59;;;;;;;2.60;2.40;;;20.30;55.60;;;;;;4982616;28;20066;-73
2023/02/13 13:31:26;;;;;;;2.25;2.05;;;20.20;55.40;;;;;;4998826;28;20026;-74
2023/02/13 13:33:57;;;;;;;2.72;2.50;;;20.30;55.70;;;;;;4998677;28;20022;-74
2023/02/13 13:36:47;;;;;;;2.40;2.20;;;20.30;55.80;;;;;;4994736;28;20025;-74
2023/02/13 13:39:13;;;;;;;;;;;20.40;55.40;;;;;;4996042;28;20062;-74
2023/02/13 13:42:08;;;;;;;2.50;1.95;;;20.50;55.20;;;;;;4995470;28;19913;-74
2023/02/13 13:44:49;;;;;;;2.42;2.25;;;20.40;55.20;;;;;;4995730;28;20030;-73
2023/02/13 13:47:37;;;;;;;2.50;2.30;;;20.50;55.30;;;;;;4995458;28;20033;-73
2023/02/13 13:50:05;;;;;;;2.33;2.10;;;20.60;54.90;;;;;;4995580;28;20019;-73
2023/02/13 13:52:36;;;;;;;2.50;2.22;;;20.60;55.10;;;;;;4995302;28;20028;-73
2023/02/13 13:55:03;;;;;;;2.35;2.15;;;20.70;55.30;;;;;;4995587;28;20053;-73
2023/02/13 13:57:39;;;;;;;2.50;2.20;;;20.70;55.20;;;;;;4995495;28;20026;-73
2023/02/13 14:00:08;;;;;;;1.77;1.67;;;20.70;55.00;;;;;;4995089;28;20042;-73
2023/02/13 14:03:10;;;;;;;2.28;2.08;;;20.70;55.00;;;;;;4995100;28;20174;-72
2023/02/13 14:05:58;;;;;;;1.88;1.70;;;20.70;55.60;;;;;;4994477;28;20042;-74
2023/02/13 14:08:39;;;;;;;2.20;2.00;;;20.80;55.00;;;;;;4995388;28;20061;-72
2023/02/13 14:11:25;;;;;;;1.70;1.60;;;20.80;54.80;;;;;;4995324;28;20030;-74
2023/02/13 14:13:51;;;;;;;3.08;2.10;;;20.80;55.00;;;;;;4994533;28;20407;-73
2023/02/13 14:16:38;;;;;;;2.25;2.00;;;20.90;54.90;;;;;;4995158;28;20046;-73
2023/02/13 14:19:21;;;;;;;2.38;2.17;;;20.90;54.80;;;;;;4994913;28;20105;-73
2023/02/13 14:21:47;;;;;;;2.10;1.95;;;20.90;54.80;;;;;;4995030;28;20392;-73
2023/02/13 14:24:18;;;;;;;2.53;2.00;;;20.90;54.80;;;;;;4994899;28;20022;-73
2023/02/13 14:26:56;;;;;;;2.22;2.03;;;20.90;54.90;;;;;;4995004;28;20028;-73
2023/02/13 14:29:27;;;;;;;2.15;1.95;;;20.90;54.90;;;;;;4995071;28;20372;-74
2023/02/13 14:32:05;;;;;;;2.35;2.15;;;20.90;55.50;;;;;;4995256;28;20026;-74
2023/02/13 14:34:36;;;;;;;1.92;1.80;;;21.00;54.90;;;;;;4994598;28;20026;-74
2023/02/13 14:37:19;;;;;;;2.70;2.00;;;21.00;54.90;;;;;;4994649;28;20026;-72
2023/02/13 14:40:10;;;;;;;1.80;1.70;;;21.00;54.80;;;;;;4994478;28;20492;-74
2023/02/13 14:42:39;;;;;;;2.55;2.15;;;21.00;54.90;;;;;;4994281;28;20493;-73
2023/02/13 14:45:19;;;;;;;3.95;2.35;;;21.00;54.90;;;;;;4977176;28;20030;-73
2023/02/13 14:47:55;;;;;;;3.85;2.10;;;21.00;54.90;;;;;;4994208;28;20026;-73
2023/02/13 14:50:21;;;;;;;3.13;2.00;;;21.00;55.00;;;;;;4994512;28;20037;-73
2023/02/13 14:52:49;;;;;;;3.80;2.28;;;21.00;54.90;;;;;;4994085;28;20385;-73
2023/02/13 14:55:28;;;;;;;2.20;2.00;;;21.00;55.00;;;;;;4994252;28;20026;-73
2023/02/13 14:58:05;;;;;;;4.80;1.80;;;21.00;55.00;;;;;;4993929;28;20034;-72
2023/02/13 15:00:59;;;;;;;3.50;2.33;;;21.00;55.10;;;;;;4994314;28;20111;-73
2023/02/13 15:03:34;;;;;;;2.95;2.28;;;21.00;55.00;;;;;;4993658;28;20054;-73
2023/02/13 15:06:21;;;;;;;2.83;2.20;;;21.00;55.10;;;;;;4993873;28;20097;-72
2023/02/13 15:08:49;;;;;;;2.80;2.10;;;21.00;55.10;;;;;;4993963;28;20069;-73
2023/02/13 15:11:42;;;;;;;2.33;2.10;;;21.00;55.10;;;;;;4993707;28;20117;-73
2023/02/13 15:14:32;;;;;;;2.83;1.85;;;21.00;55.20;;;;;;4993725;28;20026;-75
2023/02/13 15:17:13;;;;;;;3.85;2.30;;;20.90;55.20;;;;;;4993897;28;20030;-74
2023/02/13 15:19:44;;;;;;;5.70;2.00;;;20.90;55.20;;;;;;4993868;28;20035;-74
2023/02/13 15:22:18;;;;;;;2.15;1.90;;;20.90;55.20;;;;;;4993825;28;20026;-74
2023/02/13 15:24:46;;;;;;;2.65;2.10;;;20.90;55.30;;;;;;4993786;28;20110;-74
2023/02/13 15:27:24;;;;;;;2.40;2.20;;;20.80;55.50;;;;;;4993480;28;20417;-74
2023/02/13 15:30:02;;;;;;;2.17;1.90;;;20.80;55.70;;;;;;4993616;28;20065;-75
2023/02/13 15:32:32;;;;;;;2.00;1.80;;;20.80;55.80;;;;;;4993750;28;20026;-75
2023/02/13 15:34:57;;;;;;;2.15;2.05;;;20.70;56.00;;;;;;4993694;28;20101;-76
2023/02/13 15:37:27;;;;;;;2.42;2.22;;;20.70;56.00;;;;;;4993515;28;20121;-76
2023/02/13 15:39:52;;;;;;;2.42;1.80;;;20.70;56.20;;;;;;4993402;28;20097;-78
2023/02/13 15:42:18;;;;;;;2.60;2.40;;;20.60;56.30;;;;;;4993158;28;20458;-80
2023/02/13 15:44:47;;;;;;;2.35;2.17;;;20.60;56.30;;;;;;4993265;28;20022;-76
2023/02/13 15:47:29;;;;;;;2.17;1.98;;;20.60;56.20;;;;;;4993114;28;20064;-76
2023/02/13 15:49:55;;;;;;;3.95;2.75;;;20.50;56.30;;;;;;4993876;28;20026;-76
2023/02/13 15:52:29;;;;;;;5.70;3.88;;;20.50;56.40;;;;;;4994938;28;20026;-77
2023/02/13 15:54:55;;;;;;;4.32;3.70;;;20.50;56.20;;;;;;4995591;28;20018;-78
2023/02/13 15:57:22;;;;;;;4.68;3.47;;;20.50;56.20;;;;;;4994401;28;20601;-75
2023/02/13 15:59:50;;;;;;;6.90;4.13;;;20.40;56.20;;;;;;4994927;28;20038;-77
2023/02/13 16:02:41;;;;;;;6.45;4.25;;;20.30;56.20;;;;;;4994326;28;20076;-78
2023/02/13 16:05:11;;;;;;;3.22;2.65;;;20.30;56.70;;;;;;4994521;28;20381;-75
2023/02/13 16:07:50;;;;;;;4.18;2.42;;;20.20;56.80;;;;;;4994465;28;20120;-74
2023/02/13 16:10:28;;;;;;;3.78;3.03;;;20.10;57.30;;;;;;4994370;28;20026;-71
2023/02/13 16:12:55;;;;;;;3.28;2.60;;;20.10;57.10;;;;;;4993333;28;20030;-74
2023/02/13 16:15:26;;;;;;;4.20;3.35;;;20.00;57.30;;;;;;4993077;28;20030;-74
2023/02/13 16:17:53;;;;;;;2.42;2.22;;;20.00;57.40;;;;;;4992666;28;20034;-74
2023/02/13 16:20:25;;;;;;;2.33;2.13;;;20.00;57.50;;;;;;4992669;28;20485;-81
2023/02/13 16:23:05;;;;;;;2.55;2.10;;;19.90;57.60;;;;;;4993167;28;20038;-74
2023/02/13 16:25:35;;;;;;;4.75;2.72;;;19.90;58.00;;;;;;4992834;28;20093;-74
2023/02/13 16:28:08;;;;;;;3.58;2.47;;;19.80;57.40;;;;;;4993050;28;20109;-82
2023/02/13 16:30:57;;;;;;;3.28;2.30;;;19.80;58.10;;;;;;4992591;28;20031;-73
2023/02/13 16:33:36;;;;;;;4.07;2.35;;;19.80;57.60;;;;;;4992910;28;20023;-72
2023/02/13 16:36:07;;;;;;;2.17;1.95;;;19.70;57.60;;;;;;4992915;28;20033;-73
2023/02/13 16:38:43;;;;;;;2.55;2.00;;;19.70;57.70;;;;;;4992512;28;20034;-76
2023/02/13 16:41:17;;;;;;;3.25;2.40;;;19.70;57.60;;;;;;4992708;28;20151;-76
2023/02/13 16:43:53;;;;;;;5.97;2.22;;;19.70;57.70;;;;;;4992522;28;20037;-74
2023/02/13 16:46:22;;;;;;;2.83;2.25;;;19.70;57.70;;;;;;4992564;28;20026;-74
2023/02/13 16:48:59;;;;;;;2.78;2.28;;;19.60;57.60;;;;;;4992550;28;20033;-75
2023/02/13 16:51:39;;;;;;;2.58;2.25;;;19.60;57.70;;;;;;4992525;28;20029;-75
2023/02/13 16:54:16;;;;;;;2.55;2.10;;;19.60;57.70;;;;;;4992607;28;20084;-75
2023/02/13 16:56:48;;;;;;;3.40;2.22;;;19.60;57.70;;;;;;4992389;28;20031;-77
2023/02/13 16:59:29;;;;;;;2.15;1.92;;;19.50;57.70;;;;;;4992553;28;20042;-77
2023/02/13 17:02:22;;;;;;;2.88;1.95;;;19.50;57.70;;;;;;4992548;28;20049;-78
2023/02/13 17:04:52;;;;;;;2.28;1.67;;;19.50;57.80;;;;;;4978545;28;20062;-76
2023/02/13 17:07:25;;;;;;;;;;;19.50;57.80;;;;;;4993020;28;20026;-75
2023/02/13 17:09:57;;;;;;;2.30;1.90;;;19.40;57.60;;;;;;4993904;28;19910;-74
2023/02/13 17:12:23;;;;;;;3.05;1.90;;;19.40;57.60;;;;;;4996063;28;20019;-74
2023/02/13 17:14:50;;;;;;;2.22;1.67;;;19.40;57.50;;;;;;4995957;28;20536;-73
2023/02/13 17:17:19;;;;;;;2.95;2.05;;;19.40;57.50;;;;;;4996230;28;20420;-74
2023/02/13 17:19:45;;;;;;;1.90;1.75;;;19.40;57.60;;;;;;4996110;28;20393;-74
2023/02/13 17:22:20;;;;;;;2.90;2.10;;;19.40;57.60;;;;;;4996032;28;20022;-74
2023/02/13 17:24:46;;;;;;;5.47;2.08;;;19.40;57.50;;;;;;4995685;28;20030;-74
2023/02/13 17:27:13;;;;;;;2.22;1.80;;;19.40;57.50;;;;;;4995814;28;20076;-75
2023/02/13 17:29:39;;;;;;;4.03;2.08;;;19.30;57.40;;;;;;4995910;28;20389;-75
2023/02/13 17:32:07;;;;;;;2.47;2.10;;;19.30;57.40;;;;;;4995929;28;20027;-74
2023/02/13 17:34:33;;;;;;;2.55;2.25;;;19.30;57.40;;;;;;4995735;28;20473;-73
2023/02/13 17:36:59;;;;;;;1.77;1.67;;;19.30;57.50;;;;;;4996134;28;20014;-74
2023/02/13 17:39:24;;;;;;;1.95;1.75;;;19.30;57.40;;;;;;4995415;28;20038;-74
2023/02/13 17:41:50;;;;;;;2.10;1.90;;;19.30;57.40;;;;;;4995871;28;20083;-74
2023/02/13 17:44:16;;;;;;;2.05;1.85;;;19.30;57.30;;;;;;4995427;28;20437;-74
2023/02/13 17:46:42;;;;;;;2.88;1.75;;;19.30;57.40;;;;;;4995262;28;20041;-74
2023/02/13 17:49:07;;;;;;;1.85;1.60;;;19.20;57.30;;;;;;4995407;28;20511;-74
2023/02/13 17:51:34;;;;;;;1.92;1.83;;;19.20;57.30;;;;;;4995533;28;20436;-74
2023/02/13 17:54:00;;;;;;;2.10;1.80;;;19.20;57.20;;;;;;4995262;28;20544;-74
2023/02/13 17:56:26;;;;;;;2.03;1.83;;;19.20;57.20;;;;;;4995491;28;20058;-74
2023/02/13 17:58:52;;;;;;;2.78;2.13;;;19.20;57.20;;;;;;4995007;28;20121;-74
2023/02/13 18:01:18;;;;;;;2.50;1.95;;;19.20;64.50;;;;;;4995353;28;20065;-73
2023/02/13 18:03:44;;;;;;;1.77;1.63;;;19.10;57.10;;;;;;4994851;28;20481;-73
2023/02/13 18:06:11;;;;;;;3.13;1.80;;;19.20;57.10;;;;;;4995099;28;20026;-73
2023/02/13 18:08:36;;;;;;;2.40;2.00;;;19.10;57.00;;;;;;4995038;28;20512;-74
2023/02/13 18:11:08;;;;;;;2.78;2.00;;;19.10;57.00;;;;;;4994999;28;20030;-74
2023/02/13 18:13:34;;;;;;;3.95;2.30;;;19.10;56.90;;;;;;4995270;28;20431;-74
2023/02/13 18:16:00;;;;;;;3.60;1.98;;;19.10;56.90;;;;;;4995055;28;20026;-74
2023/02/13 18:18:26;;;;;;;5.00;2.20;;;19.10;56.80;;;;;;4994771;28;20030;-74
2023/02/13 18:20:55;;;;;;;9.48;2.30;;;19.10;56.80;;;;;;4994470;28;20080;-74
2023/02/13 18:23:21;;;;;;;5.03;2.20;;;19.10;56.70;;;;;;4994734;28;20077;-74
2023/02/13 18:25:47;;;;;;;6.05;2.42;;;19.10;56.80;;;;;;4994582;28;20070;-74
2023/02/13 18:28:13;;;;;;;3.58;2.40;;;19.10;56.80;;;;;;4994884;28;20038;-74